Time;durP1;ratioP1;P1;durP2;ratioP2;P2;SDS_P1;SDS_P2;PMS_P1;PMS_P2;Temp;Humidity;BMP_temperature;BMP_pressure;BME280_temperature;BME280_humidity;BME280_pressure;Samples;Min_cycle;Max_cycle;Signal;HPM_P1;HPM_P2
2024/04/20 00:00:08;;;;;;;;;20.00;15.00;;;;;5.45;89.74;99197.50;112444;235;169226;-59
2024/04/20 00:02:46;;;;;;;;;20.25;17.00;;;;;5.43;89.93;99194.39;112924;232;39949;-59
2024/04/20 00:05:20;;;;;;;;;20.00;15.67;;;;;5.44;89.89;99195.13;112662;235;169458;-61
2024/04/20 00:08:02;;;;;;;;;19.00;14.00;;;;;5.46;89.98;99197.42;112876;232;40512;-61
2024/04/20 00:10:47;;;;;;;;;22.00;18.00;;;;;5.47;90.03;99195.38;112785;232;169605;-56
2024/04/20 00:13:24;;;;;;;;;16.00;11.00;;;;;5.44;90.09;99191.80;112657;236;41585;-59
2024/04/20 00:16:04;;;;;;;;;19.75;15.25;;;;;5.43;90.30;99187.80;112559;236;40314;-60
2024/04/20 00:18:41;;;;;;;;;14.00;12.00;;;;;5.44;90.08;99181.76;112560;234;40004;-58
2024/04/20 00:21:24;;;;;;;;;20.00;16.00;;;;;5.41;90.58;99178.40;112539;233;40712;-58
2024/04/20 00:24:05;;;;;;;;;25.00;18.00;;;;;5.42;90.34;99181.30;112469;232;169722;-59
2024/04/20 00:26:43;;;;;;;;;26.00;19.00;;;;;5.37;90.66;99177.28;112542;232;40429;-59
2024/04/20 00:29:26;;;;;;;;;23.00;18.00;;;;;5.34;90.63;99181.17;112369;232;169533;-57
2024/04/20 00:32:05;;;;;;;;;20.50;17.50;;;;;5.35;90.79;99178.38;112484;236;40330;-56
2024/04/20 00:34:42;;;;;;;;;23.00;18.00;;;;;5.32;90.76;99177.84;112428;236;169291;-52
2024/04/20 00:37:23;;;;;;;;;25.67;18.33;;;;;5.32;90.92;99175.70;112600;236;40423;-55
2024/04/20 00:40:08;;;;;;;;;20.00;16.00;;;;;5.32;90.82;99176.23;112557;236;40002;-58
2024/04/20 00:42:45;;;;;;;;;25.00;18.67;;;;;5.30;90.98;99175.30;112494;234;40431;-59
2024/04/20 00:45:32;;;;;;;;;30.00;22.25;;;;;5.28;91.41;99174.88;112524;232;40430;-58
2024/04/20 00:48:09;;;;;;;;;24.00;17.33;;;;;5.29;91.20;99171.55;112454;232;169781;-59
2024/04/20 00:50:52;;;;;;;;;23.00;19.00;;;;;5.30;91.44;99172.70;112526;235;39839;-58
2024/04/20 00:53:33;;;;;;;;;22.00;17.00;;;;;5.28;91.46;99177.05;112571;231;169444;-52
2024/04/20 00:56:14;;;;;;;;;22.33;17.67;;;;;5.27;91.47;99178.07;112990;232;40161;-57
2024/04/20 00:58:54;;;;;;;;;32.00;24.00;;;;;5.26;91.54;99173.06;112714;232;169640;-59
2024/04/20 01:01:31;;;;;;;;;21.00;17.75;;;;;5.27;91.83;99174.84;112614;232;40492;-58
2024/04/20 01:04:08;;;;;;;;;23.33;18.00;;;;;5.27;92.00;99177.39;112673;236;41172;-60
2024/04/20 01:06:43;;;;;;;;;21.00;16.50;;;;;5.26;91.98;99176.45;112581;236;40797;-60
2024/04/20 01:09:18;;;;;;;;;26.00;19.00;;;;;5.25;92.09;99174.04;112684;236;39660;-58
2024/04/20 01:11:55;;;;;;;;;19.00;15.00;;;;;5.27;92.17;99175.59;112409;236;169513;-58
2024/04/20 01:14:36;;;;;;;;;27.00;20.00;;;;;5.27;92.25;99175.99;112573;232;41117;-60
2024/04/20 01:17:23;;;;;;;;;25.50;18.50;;;;;5.30;92.19;99179.02;112579;235;169611;-60
2024/04/20 01:20:06;;;;;;;;;19.00;14.00;;;;;5.31;92.35;99177.86;112840;231;39901;-55
2024/04/20 01:22:43;;;;;;;;;20.00;16.00;;;;;5.32;92.36;99181.09;112764;232;169601;-56
2024/04/20 01:25:18;;;;;;;;;19.00;14.00;;;;;5.33;92.46;99180.53;112884;231;40176;-54
2024/04/20 01:27:56;;;;;;;;;30.00;20.00;;;;;5.33;92.65;99184.29;112876;232;40425;-54
2024/04/20 01:30:34;;;;;;;;;20.50;16.75;;;;;5.32;92.55;99184.14;112467;232;169272;-60
2024/04/20 01:33:08;;;;;;;;;14.00;11.50;;;;;5.28;92.65;99183.69;112623;232;41008;-60
2024/04/20 01:35:52;;;;;;;;;21.33;16.00;;;;;5.25;92.60;99183.50;112509;236;169437;-59
2024/04/20 01:38:36;;;;;;;;;20.00;15.00;;;;;5.23;92.63;99182.47;112594;232;40957;-57
2024/04/20 01:41:18;;;;;;;;;20.33;15.33;;;;;5.22;92.70;99182.23;112418;236;169350;-56
2024/04/20 01:43:56;;;;;;;;;20.00;16.00;;;;;5.23;92.72;99182.87;112562;236;40154;-54
2024/04/20 01:46:40;;;;;;;;;20.00;16.00;;;;;5.23;92.77;99184.48;112357;233;169635;-55
2024/04/20 01:49:20;;;;;;;;;24.50;18.50;;;;;5.22;92.82;99183.41;112514;237;41386;-56
2024/04/20 01:52:02;;;;;;;;;19.50;14.00;;;;;5.22;92.65;99184.74;112499;237;41369;-54
2024/04/20 01:54:37;;;;;;;;;18.00;16.00;;;;;5.19;92.74;99185.02;112364;234;169120;-54
2024/04/20 01:57:12;;;;;;;;;18.00;14.67;;;;;5.17;92.86;99185.79;112482;237;40074;-55
2024/04/20 01:59:47;;;;;;;;;25.00;19.33;;;;;5.17;92.89;99189.20;112328;234;169489;-54
2024/04/20 02:02:30;;;;;;;;;23.00;17.00;;;;;5.14;93.03;99189.98;112474;233;40062;-56
2024/04/20 02:05:09;;;;;;;;;21.00;15.50;;;;;5.10;93.04;99195.33;112367;233;169531;-59
2024/04/20 02:07:48;;;;;;;;;12.50;11.00;;;;;5.09;93.07;99196.50;112461;233;41597;-59
2024/04/20 02:10:32;;;;;;;;;18.50;15.00;;;;;5.09;93.38;99199.05;112304;233;169675;-56
2024/04/20 02:13:08;;;;;;;;;21.00;16.00;;;;;5.13;93.34;99198.25;112507;233;41707;-56
2024/04/20 02:15:41;;;;;;;;;17.67;14.00;;;;;5.15;93.39;99201.32;112513;237;40604;-54
2024/04/20 02:18:20;;;;;;;;;16.00;12.33;;;;;5.17;93.58;99201.15;112336;234;169255;-56
2024/04/20 02:21:03;;;;;;;;;21.00;16.00;;;;;5.13;93.39;99200.55;112538;237;40230;-54
2024/04/20 02:23:38;;;;;;;;;21.50;15.50;;;;;5.03;93.26;99198.51;112376;233;169357;-56
2024/04/20 02:26:17;;;;;;;;;20.00;15.00;;;;;4.98;93.52;99196.98;112545;234;41936;-57
2024/04/20 02:29:00;;;;;;;;;22.00;16.00;;;;;4.94;93.39;99197.30;112371;237;169859;-59
2024/04/20 02:31:41;;;;;;;;;22.00;15.50;;;;;4.86;93.35;99200.80;112492;237;40379;-59
2024/04/20 02:34:19;;;;;;;;;23.00;16.00;;;;;4.83;93.36;99206.85;112345;233;169890;-57
2024/04/20 02:37:09;;;;;;;;;20.00;15.67;;;;;4.77;93.32;99205.40;112462;237;40622;-57
2024/04/20 02:39:43;;;;;;;;;24.00;16.00;;;;;4.75;93.47;99205.48;112520;233;41470;-56
2024/04/20 02:42:18;;;;;;;;;20.00;16.00;;;;;4.75;93.63;99206.69;112335;233;169547;-55
2024/04/20 02:44:56;;;;;;;;;18.00;15.00;;;;;4.79;93.73;99204.27;112497;237;41417;-60
2024/04/20 02:47:37;;;;;;;;;18.00;14.00;;;;;4.81;93.89;99206.33;112315;233;169335;-60
2024/04/20 02:50:16;;;;;;;;;21.00;17.00;;;;;4.83;93.87;99206.02;112526;233;41388;-59
2024/04/20 02:52:58;;;;;;;;;19.00;14.00;;;;;4.84;93.89;99207.46;112342;237;169696;-58
2024/04/20 02:55:34;;;;;;;;;22.00;15.00;;;;;4.84;93.96;99202.79;112475;234;40300;-55
2024/04/20 02:58:12;;;;;;;;;21.00;16.00;;;;;4.85;94.18;99208.73;112502;237;41601;-59
2024/04/20 03:00:58;;;;;;;;;20.00;15.00;;;;;4.86;94.38;99212.74;112587;233;40176;-59
2024/04/20 03:03:37;;;;;;;;;18.00;15.00;;;;;4.88;94.63;99213.25;112582;233;40317;-57
2024/04/20 03:06:16;;;;;;;;;23.00;17.00;;;;;4.92;94.63;99212.04;112367;233;169447;-56
2024/04/20 03:08:53;;;;;;;;;21.50;16.00;;;;;4.95;94.58;99214.52;112585;233;40744;-56
2024/04/20 03:11:34;;;;;;;;;20.00;14.50;;;;;4.97;94.53;99214.15;112420;234;169316;-55
2024/04/20 03:14:19;;;;;;;;;20.00;16.00;;;;;5.01;94.62;99217.52;112544;233;40247;-57
2024/04/20 03:17:03;;;;;;;;;18.00;13.00;;;;;5.04;94.77;99222.16;112351;233;169404;-57
2024/04/20 03:19:39;;;;;;;;;21.50;16.00;;;;;5.04;94.88;99222.45;112511;233;40510;-59
2024/04/20 03:22:14;;;;;;;;;17.00;12.00;;;;;5.10;94.88;99225.68;112546;233;39642;-59
2024/04/20 03:24:56;;;;;;;;;23.50;17.00;;;;;5.16;94.94;99228.35;112471;237;40588;-56
2024/04/20 03:27:40;;;;;;;;;21.00;16.00;;;;;5.18;94.91;99226.34;112499;233;41017;-56
2024/04/20 03:30:15;;;;;;;;;27.00;19.00;;;;;5.23;94.96;99225.13;112305;233;169273;-58
2024/04/20 03:32:50;;;;;;;;;22.00;16.00;;;;;5.29;94.95;99227.15;112519;232;39958;-58
2024/04/20 03:35:26;;;;;;;;;24.00;17.00;;;;;5.35;94.92;99230.09;112482;236;169711;-60
2024/04/20 03:38:01;;;;;;;;;18.00;14.00;;;;;5.38;94.93;99228.35;112611;233;41978;-60
2024/04/20 03:40:39;;;;;;;;;17.00;13.00;;;;;5.37;95.15;99230.61;112331;236;170202;-56
2024/04/20 03:43:20;;;;;;;;;20.00;16.00;;;;;5.41;95.13;99233.73;112477;237;40756;-58
2024/04/20 03:46:01;;;;;;;;;23.50;17.00;;;;;5.46;95.08;99233.10;112647;233;39701;-59
2024/04/20 03:48:44;;;;;;;;;23.33;17.67;;;;;5.55;95.22;99233.27;112383;234;169189;-56
2024/04/20 03:51:18;;;;;;;;;21.67;16.67;;;;;5.59;94.99;99236.30;112531;233;40186;-56
2024/04/20 03:53:53;;;;;;;;;21.00;16.00;;;;;5.60;94.95;99240.88;112365;236;169807;-55
2024/04/20 03:56:31;;;;;;;;;20.00;16.00;;;;;5.61;94.96;99247.20;112501;233;39827;-56
2024/04/20 03:59:08;;;;;;;;;16.33;12.67;;;;;5.62;95.01;99249.57;112322;233;171006;-56
2024/04/20 04:01:46;;;;;;;;;24.50;19.00;;;;;5.63;95.05;99251.69;112478;233;40011;-56
2024/04/20 04:04:23;;;;;;;;;16.00;13.00;;;;;5.67;94.87;99255.87;112322;233;170559;-57
2024/04/20 04:07:04;;;;;;;;;24.00;19.00;;;;;5.72;94.89;99255.83;112493;233;40377;-57
2024/04/20 04:09:46;;;;;;;;;23.00;17.00;;;;;5.73;94.93;99259.40;112494;236;40120;-55
2024/04/20 04:12:23;;;;;;;;;22.00;17.00;;;;;5.77;94.91;99260.60;112363;233;170002;-55
2024/04/20 04:14:59;;;;;;;;;20.50;16.00;;;;;5.80;94.91;99262.33;112540;232;40512;-59
2024/04/20 04:17:37;;;;;;;;;28.00;21.00;;;;;5.80;94.99;99267.16;112305;233;170094;-57
2024/04/20 04:20:15;;;;;;;;;19.00;14.33;;;;;5.84;94.93;99265.82;112574;232;42302;-57
2024/04/20 04:22:50;;;;;;;;;36.00;27.00;;;;;5.88;94.80;99274.02;112430;232;169960;-56
2024/04/20 04:25:30;;;;;;;;;22.00;18.00;;;;;5.92;94.76;99276.21;112584;233;40910;-58
2024/04/20 04:28:24;;;;;;;;;20.00;16.00;;;;;5.92;94.83;99279.05;112556;233;40299;-58
2024/04/20 04:31:00;;;;;;;;;26.00;18.00;;;;;5.92;94.78;99283.23;112516;236;40885;-58
2024/04/20 04:33:44;;;;;;;;;30.00;23.00;;;;;5.94;94.88;99284.52;112550;233;40072;-57
2024/04/20 04:36:21;;;;;;;;;23.00;18.00;;;;;5.99;94.70;99285.95;112365;233;169811;-56
2024/04/20 04:38:58;;;;;;;;;17.00;13.50;;;;;5.99;94.68;99289.33;112623;232;39937;-54
2024/04/20 04:41:35;;;;;;;;;30.00;22.00;;;;;5.95;94.79;99298.89;112378;232;169903;-55
2024/04/20 04:44:11;;;;;;;;;26.00;21.00;;;;;5.96;94.97;99295.39;112533;233;41516;-60
2024/04/20 04:46:52;;;;;;;;;34.25;24.00;;;;;6.00;94.90;99302.86;112332;233;170158;-59
2024/04/20 04:49:35;;;;;;;;;27.00;22.00;;;;;6.03;94.95;99307.07;112725;237;40888;-56
2024/04/20 04:52:11;;;;;;;;;27.67;19.67;;;;;6.09;94.83;99305.86;112483;233;40827;-55
2024/04/20 04:54:55;;;;;;;;;28.00;21.00;;;;;6.14;95.10;99311.83;112328;232;170966;-57
2024/04/20 04:57:29;;;;;;;;;27.00;20.00;;;;;6.22;94.88;99316.55;112639;232;41535;-58
2024/04/20 05:00:10;;;;;;;;;47.67;34.00;;;;;6.23;94.96;99323.36;112319;234;171278;-59
2024/04/20 05:02:51;;;;;;;;;37.25;29.00;;;;;6.22;94.93;99323.98;112521;236;41413;-59
2024/04/20 05:05:27;;;;;;;;;29.00;24.00;;;;;6.22;94.94;99329.59;112335;236;169972;-56
2024/04/20 05:08:06;;;;;;;;;24.00;17.50;;;;;6.26;95.06;99331.04;112485;234;40375;-57
2024/04/20 05:10:48;;;;;;;;;26.33;18.00;;;;;6.28;94.87;99332.38;112336;233;170636;-56
2024/04/20 05:13:22;;;;;;;;;24.33;18.00;;;;;6.28;94.85;99335.08;112488;233;40966;-56
2024/04/20 05:15:56;;;;;;;;;22.00;17.00;;;;;6.32;94.91;99342.58;112649;232;41116;-57
2024/04/20 05:18:35;;;;;;;;;23.00;18.00;;;;;6.34;94.85;99343.73;112483;233;169729;-56
2024/04/20 05:21:09;;;;;;;;;17.00;13.00;;;;;6.31;94.98;99352.97;112548;236;41057;-56
2024/04/20 05:23:50;;;;;;;;;24.00;15.00;;;;;6.29;95.08;99354.36;112367;233;170862;-56
2024/04/20 05:26:28;;;;;;;;;22.00;16.00;;;;;6.35;95.01;99356.20;112561;232;40109;-58
2024/04/20 05:29:14;;;;;;;;;21.00;15.67;;;;;6.41;94.90;99358.80;112386;233;170122;-58
2024/04/20 05:31:52;;;;;;;;;13.50;10.25;;;;;6.40;94.90;99365.95;112604;233;41984;-56
2024/04/20 05:34:28;;;;;;;;;21.33;17.00;;;;;6.42;94.90;99366.76;112298;233;170060;-58
2024/04/20 05:37:02;;;;;;;;;17.00;13.00;;;;;6.44;94.84;99371.52;112518;233;40953;-59
2024/04/20 05:39:43;;;;;;;;;20.00;15.67;;;;;6.49;94.72;99379.06;112576;232;40276;-58
2024/04/20 05:42:24;;;;;;;;;15.50;11.00;;;;;6.51;94.63;99380.65;112481;235;169958;-58
2024/04/20 05:45:01;;;;;;;;;20.00;16.00;;;;;6.52;94.64;99382.98;112516;236;41435;-56
2024/04/20 05:47:35;;;;;;;;;16.00;12.33;;;;;6.57;94.64;99385.69;112329;233;169699;-56
2024/04/20 05:50:11;;;;;;;;;17.50;15.00;;;;;6.61;94.55;99386.30;112556;236;41336;-56
2024/04/20 05:52:50;;;;;;;;;19.33;13.00;;;;;6.61;94.62;99389.65;112421;236;169935;-57
2024/04/20 05:55:30;;;;;;;;;16.00;12.00;;;;;6.65;94.64;99392.91;112669;236;40601;-57
2024/04/20 05:58:05;;;;;;;;;20.33;14.00;;;;;6.66;94.60;99394.54;112500;233;41746;-57
2024/04/20 06:00:40;;;;;;;;;21.00;16.00;;;;;6.67;94.60;99393.05;112446;234;169987;-56
2024/04/20 06:03:17;;;;;;;;;21.67;16.00;;;;;6.65;94.74;99397.38;112675;232;41436;-60
2024/04/20 06:05:53;;;;;;;;;21.00;17.00;;;;;6.70;94.91;99403.67;112531;235;169770;-60
2024/04/20 06:08:36;;;;;;;;;27.00;19.00;;;;;6.80;94.94;99404.41;112641;233;41796;-59
2024/04/20 06:11:16;;;;;;;;;21.00;16.00;;;;;6.95;94.71;99406.80;112321;234;170152;-57
2024/04/20 06:13:50;;;;;;;;;24.00;18.00;;;;;7.11;94.92;99408.81;112529;232;40348;-56
2024/04/20 06:16:26;;;;;;;;;19.00;14.00;;;;;7.22;94.81;99411.45;112430;236;170388;-56
2024/04/20 06:18:59;;;;;;;;;21.25;16.25;;;;;7.35;94.65;99411.80;112593;236;39823;-58
2024/04/20 06:21:36;;;;;;;;;23.67;15.33;;;;;7.41;94.69;99411.89;112553;233;41730;-57
2024/04/20 06:24:15;;;;;;;;;15.50;12.25;;;;;7.47;94.43;99415.44;112326;236;170319;-58
2024/04/20 06:26:50;;;;;;;;;15.00;12.00;;;;;7.53;94.32;99417.61;112533;232;40339;-58
2024/04/20 06:29:27;;;;;;;;;20.00;16.00;;;;;7.64;94.23;99418.28;112353;232;170091;-53
2024/04/20 06:32:01;;;;;;;;;18.75;14.00;;;;;7.70;94.25;99423.45;112491;233;40402;-53
2024/04/20 06:34:39;;;;;;;;;25.00;20.00;;;;;7.66;94.21;99428.36;112359;233;170250;-53
2024/04/20 06:37:18;;;;;;;;;23.50;17.00;;;;;7.70;94.47;99427.36;112473;232;40319;-53
2024/04/20 06:39:56;;;;;;;;;23.00;16.00;;;;;7.82;94.38;99431.73;112587;232;40475;-57
2024/04/20 06:42:33;;;;;;;;;18.00;14.00;;;;;7.92;93.78;99433.39;112409;232;169997;-55
2024/04/20 06:45:08;;;;;;;;;19.00;13.50;;;;;7.92;93.79;99439.64;112554;236;40880;-58
2024/04/20 06:47:45;;;;;;;;;16.67;13.67;;;;;7.94;93.54;99442.59;112348;233;170199;-55
2024/04/20 06:50:20;;;;;;;;;19.00;15.00;;;;;7.91;93.19;99445.87;111093;232;1838199;-57
2024/04/20 06:53:01;;;;;;;;;18.00;15.00;;;;;7.86;92.94;99447.90;112305;234;169903;-53
2024/04/20 06:55:40;;;;;;;;;18.00;14.00;;;;;7.77;93.18;99452.34;112517;236;40440;-54
2024/04/20 06:58:19;;;;;;;;;24.00;18.00;;;;;7.70;92.92;99457.17;112502;233;39992;-58
2024/04/20 07:00:54;;;;;;;;;18.33;14.00;;;;;7.76;92.82;99461.60;112513;234;40449;-56
2024/04/20 07:03:29;;;;;;;;;22.00;15.00;;;;;7.75;92.85;99460.14;112541;233;40758;-54
2024/04/20 07:06:07;;;;;;;;;21.00;15.00;;;;;7.78;93.01;99466.78;112333;233;169820;-55
2024/04/20 07:08:43;;;;;;;;;20.00;16.00;;;;;7.84;93.52;99465.80;112609;236;40336;-54
2024/04/20 07:11:21;;;;;;;;;23.00;18.00;;;;;8.01;93.54;99468.58;112364;235;169926;-57
2024/04/20 07:14:00;;;;;;;;;25.00;16.00;;;;;8.22;93.48;99470.45;112529;233;40127;-58
2024/04/20 07:16:35;;;;;;;;;27.50;18.00;;;;;8.47;92.86;99474.60;112385;233;170180;-57
2024/04/20 07:19:12;;;;;;;;;22.67;17.00;;;;;8.67;92.75;99474.45;112488;236;40619;-58
2024/04/20 07:21:48;;;;;;;;;25.00;19.00;;;;;8.82;92.75;99475.77;112536;236;42009;-61
2024/04/20 07:24:27;;;;;;;;;18.00;15.00;;;;;8.94;92.98;99473.61;112490;232;170450;-59
2024/04/20 07:27:06;;;;;;;;;22.67;16.33;;;;;9.13;93.37;99477.74;112533;236;39643;-58
2024/04/20 07:29:43;;;;;;;;;23.33;17.00;;;;;9.40;92.79;99476.53;112300;233;170226;-58
2024/04/20 07:32:24;;;;;;;;;21.00;16.00;;;;;9.58;92.16;99480.50;112508;232;40116;-58
2024/04/20 07:35:07;;;;;;;;;20.00;15.00;;;;;9.88;92.22;99478.83;112414;235;171174;-57
2024/04/20 07:37:48;;;;;;;;;24.00;19.00;;;;;10.20;92.01;99478.38;112613;233;40218;-57
2024/04/20 07:40:25;;;;;;;;;21.00;17.00;;;;;10.36;91.60;99488.17;112471;233;40706;-57
2024/04/20 07:43:03;;;;;;;;;21.00;17.00;;;;;10.48;91.54;99486.98;112449;232;40700;-57
2024/04/20 07:45:44;;;;;;;;;22.00;17.00;;;;;10.75;91.62;99482.84;112540;232;41592;-60
2024/04/20 07:48:22;;;;;;;;;17.33;13.00;;;;;11.32;90.48;99486.34;112327;234;169113;-58
2024/04/20 07:51:00;;;;;;;;;17.00;14.00;;;;;11.63;90.17;99484.23;112604;232;40107;-59
2024/04/20 07:53:39;;;;;;;;;16.00;13.00;;;;;12.28;89.58;99488.08;112438;236;169810;-60
2024/04/20 07:56:16;;;;;;;;;18.00;14.00;;;;;12.71;89.83;99491.19;112624;232;40324;-58
2024/04/20 07:58:53;;;;;;;;;14.00;12.00;;;;;13.18;88.97;99495.16;112458;236;173941;-56
2024/04/20 08:01:30;;;;;;;;;16.00;14.00;;;;;13.12;87.62;99494.98;112541;233;41012;-56
2024/04/20 08:04:12;;;;;;;;;14.00;12.00;;;;;13.00;86.36;99500.35;112562;233;41228;-57
2024/04/20 08:06:57;;;;;;;;;16.33;12.67;;;;;12.73;85.31;99507.79;112393;236;169686;-56
2024/04/20 08:09:33;;;;;;;;;14.00;12.00;;;;;12.44;84.12;99513.55;112571;236;40060;-60
2024/04/20 08:12:11;;;;;;;;;14.00;12.00;;;;;12.07;84.26;99522.58;112382;236;170054;-60
2024/04/20 08:14:47;;;;;;;;;16.00;13.00;;;;;11.82;84.28;99525.39;112545;236;40700;-57
2024/04/20 08:17:21;;;;;;;;;13.00;11.67;;;;;11.69;84.51;99532.48;112347;236;169581;-56
2024/04/20 08:20:02;;;;;;;;;14.67;12.00;;;;;11.59;83.88;99533.13;112542;234;40736;-55
2024/04/20 08:22:48;;;;;;;;;19.33;14.67;;;;;11.38;83.36;99537.73;112379;232;170348;-55
2024/04/20 08:25:27;;;;;;;;;16.00;12.00;;;;;11.16;83.64;99541.58;112707;236;40850;-60
2024/04/20 08:28:03;;;;;;;;;11.00;8.75;;;;;11.16;83.96;99546.55;112523;233;40318;-60
2024/04/20 08:30:43;;;;;;;;;8.00;7.00;;;;;11.21;83.83;99553.11;112320;233;169920;-55
2024/04/20 08:33:22;;;;;;;;;9.75;7.75;;;;;11.23;84.09;99558.80;112610;236;41650;-58
2024/04/20 08:36:02;;;;;;;;;12.00;9.00;;;;;11.30;83.77;99562.39;112494;236;170386;-56
2024/04/20 08:38:37;;;;;;;;;9.00;7.00;;;;;11.15;83.24;99565.44;112591;233;41427;-60
2024/04/20 08:41:17;;;;;;;;;10.00;9.00;;;;;10.91;83.12;99567.30;112423;233;170274;-58
2024/04/20 08:43:54;;;;;;;;;12.33;10.00;;;;;10.85;83.43;99571.52;112552;233;40235;-57
2024/04/20 08:46:31;;;;;;;;;11.00;9.50;;;;;10.91;83.29;99573.74;112570;232;41896;-54
2024/04/20 08:49:10;;;;;;;;;10.25;8.25;;;;;10.92;83.68;99573.91;112527;236;40098;-57
2024/04/20 08:51:54;;;;;;;;;11.00;10.00;;;;;10.86;83.75;99578.45;112512;236;40747;-57
2024/04/20 08:54:37;;;;;;;;;8.50;7.50;;;;;11.36;85.07;99582.04;112372;236;169679;-56
2024/04/20 08:57:12;;;;;;;;;12.50;10.50;;;;;13.01;86.38;99578.94;112546;232;41168;-62
2024/04/20 08:59:47;;;;;;;;;11.00;9.00;;;;;14.62;86.25;99572.52;112309;232;170801;-54
2024/04/20 09:02:29;;;;;;;;;7.25;6.25;;;;;15.53;83.44;99570.14;112515;233;42027;-56
2024/04/20 09:05:09;;;;;;;;;7.00;6.67;;;;;15.41;81.09;99574.98;112340;233;169767;-55
2024/04/20 09:07:45;;;;;;;;;7.00;6.25;;;;;15.19;79.30;99579.41;112507;234;42234;-59
2024/04/20 09:10:23;;;;;;;;;6.33;5.67;;;;;14.71;77.95;99588.20;112521;234;40039;-54
2024/04/20 09:12:59;;;;;;;;;8.67;7.00;;;;;14.43;77.35;99590.30;112506;235;169143;-53
2024/04/20 09:15:46;;;;;;;;;8.00;7.00;;;;;14.32;76.95;99592.81;112535;233;41701;-55
2024/04/20 09:18:21;;;;;;;;;6.00;6.00;;;;;14.22;75.77;99602.66;112411;234;169674;-57
2024/04/20 09:21:00;;;;;;;;;5.00;5.00;;;;;13.89;75.50;99602.00;112539;236;40333;-55
2024/04/20 09:23:42;;;;;;;;;6.00;5.33;;;;;13.63;75.56;99604.73;112381;234;169443;-55
2024/04/20 09:26:22;;;;;;;;;8.00;6.00;;;;;13.64;75.40;99611.23;112551;236;40008;-54
2024/04/20 09:29:06;;;;;;;;;7.00;7.00;;;;;13.43;75.20;99614.91;112359;233;169565;-54
2024/04/20 09:31:50;;;;;;;;;9.00;8.00;;;;;13.54;74.39;99620.55;112542;232;41300;-54
2024/04/20 09:34:32;;;;;;;;;6.00;5.00;;;;;13.44;74.74;99623.67;112616;232;41772;-53
2024/04/20 09:37:16;;;;;;;;;5.00;4.75;;;;;13.49;75.23;99624.91;112675;236;40369;-56
2024/04/20 09:39:51;;;;;;;;;7.50;6.00;;;;;13.61;74.54;99624.67;112501;236;40502;-58
2024/04/20 09:42:33;;;;;;;;;10.00;7.75;;;;;13.38;74.66;99628.70;112289;236;169564;-60
2024/04/20 09:45:11;;;;;;;;;15.00;13.00;;;;;13.44;73.88;99629.64;112698;236;40658;-58
2024/04/20 09:47:52;;;;;;;;;8.50;7.00;;;;;13.16;73.66;99634.64;112395;236;170163;-58
2024/04/20 09:50:33;;;;;;;;;8.00;7.00;;;;;13.02;73.56;99635.86;112595;232;40360;-56
2024/04/20 09:53:22;;;;;;;;;9.00;7.00;;;;;12.87;73.95;99641.52;112526;232;169572;-57
2024/04/20 09:55:59;;;;;;;;;9.00;8.00;;;;;12.97;74.51;99642.16;112545;236;40360;-56
2024/04/20 09:58:36;;;;;;;;;5.50;5.00;;;;;13.04;73.69;99642.98;112532;233;40827;-56
2024/04/20 10:01:13;;;;;;;;;8.00;6.00;;;;;12.98;73.22;99643.32;112621;233;41773;-57
2024/04/20 10:03:54;;;;;;;;;8.00;7.00;;;;;12.80;72.75;99644.49;112520;233;40345;-58
2024/04/20 10:06:32;;;;;;;;;9.00;8.00;;;;;12.54;72.66;99646.75;112311;236;169530;-58
2024/04/20 10:09:10;;;;;;;;;10.00;8.00;;;;;12.52;72.34;99647.77;112640;232;42067;-58
2024/04/20 10:11:46;;;;;;;;;8.00;7.00;;;;;12.62;72.76;99649.16;112401;235;169667;-58
2024/04/20 10:14:24;;;;;;;;;8.50;7.00;;;;;12.74;73.18;99647.64;112546;236;40195;-56
2024/04/20 10:17:03;;;;;;;;;7.00;6.50;;;;;12.66;72.87;99654.82;112376;236;169510;-56
2024/04/20 10:19:45;;;;;;;;;7.75;6.00;;;;;12.88;72.90;99654.70;112530;236;40149;-55
2024/04/20 10:22:23;;;;;;;;;7.00;6.00;;;;;12.86;72.90;99655.70;112577;236;40882;-61
2024/04/20 10:25:02;;;;;;;;;7.00;6.00;;;;;12.79;72.10;99656.85;112448;234;169120;-61
2024/04/20 10:27:41;;;;;;;;;9.00;7.50;;;;;13.06;72.34;99657.48;112509;233;40248;-59
2024/04/20 10:30:24;;;;;;;;;6.75;6.00;;;;;13.43;71.86;99661.41;112303;233;169527;-54
2024/04/20 10:33:09;;;;;;;;;6.00;5.00;;;;;13.64;71.61;99657.16;112464;233;40987;-53
2024/04/20 10:35:58;;;;;;;;;9.00;7.00;;;;;13.97;69.95;99657.16;112372;233;169281;-58
2024/04/20 10:38:40;;;;;;;;;7.00;6.00;;;;;14.04;68.51;99659.44;112471;235;41684;-58
2024/04/20 10:41:20;;;;;;;;;7.00;7.00;;;;;14.12;67.78;99660.45;112458;232;169474;-58
2024/04/20 10:43:56;;;;;;;;;6.50;6.50;;;;;14.13;67.85;99662.84;112549;233;40591;-57
2024/04/20 10:46:35;;;;;;;;;7.50;6.50;;;;;13.92;68.29;99662.63;112497;233;40285;-56
2024/04/20 10:49:15;;;;;;;;;6.00;5.00;;;;;13.75;68.39;99672.41;112600;233;40200;-53
2024/04/20 10:51:58;;;;;;;;;6.50;6.00;;;;;13.54;68.16;99677.98;112542;233;40510;-56
2024/04/20 10:54:32;;;;;;;;;8.00;7.00;;;;;13.38;67.62;99677.95;112364;233;169468;-56
2024/04/20 10:57:11;;;;;;;;;7.00;6.50;;;;;13.23;67.98;99688.67;112551;236;40084;-57
2024/04/20 10:59:50;;;;;;;;;8.00;7.00;;;;;13.21;68.04;99690.95;112371;233;169942;-58
2024/04/20 11:02:27;;;;;;;;;9.75;8.00;;;;;13.31;67.25;99689.05;112509;232;39734;-59
2024/04/20 11:05:07;;;;;;;;;10.00;9.00;;;;;13.33;66.77;99688.62;112408;236;169514;-54
2024/04/20 11:07:42;;;;;;;;;10.00;9.00;;;;;13.28;65.97;99696.48;112555;236;40369;-55
2024/04/20 11:10:21;;;;;;;;;9.00;8.00;;;;;13.21;66.03;99700.13;112526;233;39620;-58
2024/04/20 11:13:05;;;;;;;;;12.00;9.25;;;;;13.06;65.57;99704.55;112330;234;169202;-58
2024/04/20 11:15:47;;;;;;;;;11.00;8.00;;;;;12.81;65.97;99707.45;112494;233;42018;-54
2024/04/20 11:18:29;;;;;;;;;9.00;7.50;;;;;12.57;66.32;99712.38;112239;237;169482;-54
2024/04/20 11:21:13;;;;;;;;;11.33;9.00;;;;;12.40;66.60;99711.37;112469;233;40456;-55
2024/04/20 11:23:54;;;;;;;;;10.00;8.00;;;;;12.17;67.61;99713.80;112471;233;169650;-53
2024/04/20 11:26:29;;;;;;;;;11.75;10.00;;;;;12.05;67.32;99724.89;112583;236;39900;-54
2024/04/20 11:29:03;;;;;;;;;12.50;9.50;;;;;11.73;67.12;99728.48;112325;233;170006;-59
2024/04/20 11:31:45;;;;;;;;;10.33;7.33;;;;;11.57;67.49;99728.36;112537;237;41519;-60
2024/04/20 11:34:29;;;;;;;;;13.00;11.00;;;;;11.34;68.24;99734.57;112578;236;40374;-55
2024/04/20 11:37:06;;;;;;;;;11.00;9.00;;;;;11.43;67.83;99741.71;112348;236;169599;-56
2024/04/20 11:39:43;;;;;;;;;13.00;11.00;;;;;11.38;68.15;99739.96;112572;233;40126;-60
2024/04/20 11:42:20;;;;;;;;;12.50;10.25;;;;;11.32;68.45;99747.70;112379;233;170173;-61
2024/04/20 11:44:58;;;;;;;;;13.00;10.00;;;;;11.21;68.69;99750.17;112505;234;41745;-56
2024/04/20 11:47:35;;;;;;;;;12.00;9.00;;;;;11.17;68.79;99752.51;112419;233;169658;-58
2024/04/20 11:50:13;;;;;;;;;13.00;11.00;;;;;11.02;69.59;99755.75;112542;233;39853;-61
2024/04/20 11:55:48;;;;;;;;;18.00;13.00;;;;;10.79;70.46;99758.11;112481;234;40960;-57
2024/04/20 11:58:23;;;;;;;;;15.00;11.50;;;;;10.74;70.83;99757.35;112429;233;41493;-57
2024/04/20 12:01:00;;;;;;;;;11.00;10.00;;;;;10.76;71.06;99761.67;112323;233;169994;-57
2024/04/20 12:03:35;;;;;;;;;12.33;9.00;;;;;10.71;71.38;99766.48;112518;237;40136;-60
2024/04/20 12:06:10;;;;;;;;;11.00;9.00;;;;;10.63;71.50;99766.35;112354;233;169663;-61
2024/04/20 12:08:44;;;;;;;;;13.00;10.00;;;;;10.54;71.16;99765.92;112516;233;40308;-56
2024/04/20 12:11:31;;;;;;;;;14.00;11.00;;;;;10.50;71.44;99766.86;112337;236;169781;-55
2024/04/20 12:14:09;;;;;;;;;12.33;10.00;;;;;10.46;71.53;99764.86;112506;237;41153;-55
2024/04/20 12:16:49;;;;;;;;;15.67;12.00;;;;;10.47;71.69;99765.45;112540;233;40109;-56